createdAt,value
2023-01-28T00:01:56.056Z,18.90
2023-01-28T00:04:23.075Z,18.63
2023-01-28T00:06:50.092Z,16.67
2023-01-28T00:09:17.466Z,19.30
2023-01-28T00:11:44.581Z,18.37
2023-01-28T00:14:12.729Z,18.13
2023-01-28T00:16:39.872Z,18.33
2023-01-28T00:19:07.538Z,18.07
2023-01-28T00:21:35.039Z,19.37
2023-01-28T00:24:02.207Z,19.00
2023-01-28T00:26:29.251Z,18.10
2023-01-28T00:28:56.483Z,18.03
2023-01-28T00:31:27.439Z,18.87
2023-01-28T00:33:56.273Z,19.17
2023-01-28T00:36:25.852Z,19.30
2023-01-28T00:38:55.278Z,20.13
2023-01-28T00:41:24.844Z,19.23
2023-01-28T00:43:55.737Z,19.63
2023-01-28T00:46:23.747Z,18.43
2023-01-28T00:48:50.853Z,18.37
2023-01-28T00:51:20.302Z,18.43
2023-01-28T00:53:49.767Z,18.90
2023-01-28T00:56:19.539Z,17.53
2023-01-28T00:58:46.893Z,18.20
2023-01-28T01:01:20.659Z,18.90
2023-01-28T01:03:54.459Z,18.30
2023-01-28T01:06:22.786Z,19.10
2023-01-28T01:08:50.299Z,18.63
2023-01-28T01:11:19.064Z,18.97
2023-01-28T01:13:55.038Z,19.43
2023-01-28T01:16:24.447Z,19.47
2023-01-28T01:18:53.519Z,18.57
2023-01-28T01:21:23.401Z,15.73
2023-01-28T01:23:51.817Z,18.67
2023-01-28T01:26:19.143Z,18.83
2023-01-28T01:28:46.712Z,18.27
2023-01-28T01:31:17.367Z,17.90
2023-01-28T01:33:46.759Z,19.47
2023-01-28T01:36:16.858Z,19.47
2023-01-28T01:38:45.044Z,19.20
2023-01-28T01:41:32.190Z,19.20
2023-01-28T01:44:02.078Z,19.30
2023-01-28T01:46:41.681Z,18.67
2023-01-28T01:49:18.068Z,19.60
2023-01-28T01:51:49.153Z,19.20
2023-01-28T01:54:18.248Z,18.60
2023-01-28T01:56:48.923Z,18.63
2023-01-28T01:59:20.379Z,18.20
2023-01-28T02:01:48.561Z,18.67
2023-01-28T02:04:22.503Z,18.73
2023-01-28T02:06:49.688Z,19.13
2023-01-28T02:09:27.417Z,18.73
2023-01-28T02:11:59.053Z,17.80
2023-01-28T02:14:32.015Z,19.07
2023-01-28T02:17:02.046Z,19.27
2023-01-28T02:19:40.432Z,18.83
2023-01-28T02:22:28.678Z,18.77
2023-01-28T02:25:12.825Z,19.60
2023-01-28T02:28:17.688Z,19.00
2023-01-28T02:31:06.121Z,19.87
2023-01-28T02:33:41.210Z,18.30
2023-01-28T02:36:17.107Z,17.83
2023-01-28T02:38:51.096Z,17.53
2023-01-28T02:41:30.112Z,19.33
2023-01-28T02:43:57.219Z,18.30
2023-01-28T02:46:45.858Z,19.10
2023-01-28T02:49:25.921Z,18.57
2023-01-28T02:52:01.922Z,17.97
2023-01-28T02:54:49.966Z,17.57
2023-01-28T02:57:26.377Z,18.13
2023-01-28T03:00:12.229Z,18.10
2023-01-28T03:03:00.403Z,17.10
2023-01-28T03:05:35.793Z,18.63
2023-01-28T03:08:25.842Z,19.53
2023-01-28T03:11:13.959Z,17.13
2023-01-28T03:14:01.080Z,18.27
2023-01-28T03:16:51.345Z,18.90
2023-01-28T03:19:37.644Z,19.70
2023-01-28T03:22:23.807Z,16.97
2023-01-28T03:25:12.066Z,18.27
2023-01-28T03:28:10.081Z,16.63
2023-01-28T03:31:04.859Z,18.77
2023-01-28T03:34:01.580Z,18.23
2023-01-28T03:36:47.578Z,17.97
2023-01-28T03:39:31.963Z,17.40
2023-01-28T03:42:11.497Z,16.30
2023-01-28T03:45:01.781Z,18.70
2023-01-28T03:47:30.998Z,18.30
2023-01-28T03:50:02.331Z,18.10
2023-01-28T03:52:35.394Z,18.50
2023-01-28T03:55:21.023Z,19.07
2023-01-28T03:57:48.379Z,17.70
2023-01-28T04:00:18.268Z,17.63
2023-01-28T04:02:46.331Z,18.17
2023-01-28T04:05:19.901Z,17.50
2023-01-28T04:07:51.898Z,16.93
2023-01-28T04:10:26.819Z,18.30
2023-01-28T04:13:18.388Z,18.07
2023-01-28T04:15:46.571Z,17.40
2023-01-28T04:18:15.446Z,18.77
2023-01-28T04:20:43.135Z,17.83
2023-01-28T04:23:10.275Z,17.77
2023-01-28T04:25:37.406Z,15.60
2023-01-28T04:28:08.242Z,17.33
2023-01-28T04:30:35.519Z,16.70
2023-01-28T04:33:11.638Z,16.53
2023-01-28T04:35:57.396Z,17.83
2023-01-28T04:38:46.431Z,17.83
2023-01-28T04:41:42.820Z,18.27
2023-01-28T04:44:25.837Z,17.60
2023-01-28T04:46:58.660Z,17.90
2023-01-28T04:49:36.971Z,17.13
2023-01-28T04:52:20.660Z,16.93
2023-01-28T04:55:07.062Z,15.93
2023-01-28T04:57:35.065Z,16.73
2023-01-28T05:00:02.380Z,17.07
2023-01-28T05:02:29.691Z,15.57
2023-01-28T05:04:56.820Z,16.70
2023-01-28T05:07:38.668Z,15.30
2023-01-28T05:10:07.133Z,14.10
2023-01-28T05:12:34.761Z,14.13
2023-01-28T05:15:05.927Z,16.37
2023-01-28T05:17:33.202Z,15.47
2023-01-28T05:20:00.533Z,16.03
2023-01-28T05:22:29.346Z,15.93
2023-01-28T05:25:31.844Z,15.87
2023-01-28T05:27:59.111Z,16.23
2023-01-28T05:30:26.291Z,16.80
2023-01-28T05:32:57.250Z,17.43
2023-01-28T05:35:25.893Z,16.87
2023-01-28T05:37:52.898Z,15.43
2023-01-28T05:40:20.420Z,15.13
2023-01-28T05:42:47.881Z,16.37
2023-01-28T05:45:41.339Z,15.60
2023-01-28T05:48:15.190Z,14.70
2023-01-28T05:51:08.334Z,15.23
2023-01-28T05:53:37.948Z,16.03
2023-01-28T05:56:06.589Z,16.37
2023-01-28T05:58:37.574Z,16.60
2023-01-28T06:01:05.183Z,16.73
2023-01-28T06:03:40.903Z,15.83
2023-01-28T06:06:08.244Z,15.90
2023-01-28T06:08:37.360Z,16.00
2023-01-28T06:11:05.047Z,15.10
2023-01-28T06:13:35.933Z,14.73
2023-01-28T06:16:21.718Z,15.27
2023-01-28T06:19:00.311Z,15.13
2023-01-28T06:21:30.043Z,16.13
2023-01-28T06:23:58.843Z,14.93
2023-01-28T06:26:25.945Z,15.40
2023-01-28T06:28:53.218Z,15.23
2023-01-28T06:31:20.278Z,14.77
2023-01-28T06:33:47.454Z,14.13
2023-01-28T06:36:14.450Z,14.13
2023-01-28T06:38:41.550Z,12.23
2023-01-28T06:41:08.649Z,13.00
2023-01-28T06:43:36.117Z,13.30
2023-01-28T06:46:03.228Z,13.53
2023-01-28T06:48:30.818Z,12.83
2023-01-28T06:50:57.846Z,13.40
2023-01-28T06:53:24.997Z,13.07
2023-01-28T06:55:52.264Z,12.93
2023-01-28T06:58:19.621Z,12.30
2023-01-28T07:00:46.811Z,13.00
2023-01-28T07:03:14.191Z,12.47
2023-01-28T07:05:41.219Z,12.17
2023-01-28T07:08:08.319Z,11.80
2023-01-28T07:10:35.543Z,13.07
2023-01-28T07:13:03.570Z,11.80
2023-01-28T07:15:30.591Z,11.27
2023-01-28T07:17:58.034Z,12.57
2023-01-28T07:20:26.419Z,13.37
2023-01-28T07:22:53.621Z,13.87
2023-01-28T07:25:21.214Z,12.67
2023-01-28T07:27:53.341Z,12.70
2023-01-28T07:30:21.949Z,12.77
2023-01-28T07:32:56.888Z,14.07
2023-01-28T07:35:24.919Z,11.67
2023-01-28T07:37:56.984Z,13.33
2023-01-28T07:40:25.794Z,13.17
2023-01-28T07:42:55.370Z,13.73
2023-01-28T07:45:24.452Z,13.77
2023-01-28T07:47:59.537Z,13.47
2023-01-28T07:50:29.164Z,12.97
2023-01-28T07:52:57.307Z,13.30
2023-01-28T07:55:25.612Z,12.77
2023-01-28T07:57:59.198Z,12.53
2023-01-28T08:00:28.338Z,14.13
2023-01-28T08:03:00.297Z,12.50
2023-01-28T08:05:41.600Z,13.17
2023-01-28T08:08:10.136Z,14.07
2023-01-28T08:10:38.181Z,13.57
2023-01-28T08:13:06.346Z,10.77
2023-01-28T08:15:35.369Z,13.00
2023-01-28T08:18:03.849Z,13.03
2023-01-28T08:20:31.037Z,13.93
2023-01-28T08:23:19.117Z,14.03
2023-01-28T08:25:47.400Z,12.80
2023-01-28T08:28:16.236Z,12.90
2023-01-28T08:30:43.640Z,13.10
2023-01-28T08:33:12.631Z,12.77
2023-01-28T08:35:40.351Z,12.33
2023-01-28T08:38:08.947Z,12.57
2023-01-28T08:40:39.138Z,10.10
2023-01-28T08:43:07.661Z,12.27
2023-01-28T08:45:34.704Z,12.10
2023-01-28T08:48:06.926Z,12.03
2023-01-28T08:50:38.000Z,11.60
2023-01-28T08:53:08.257Z,11.70
2023-01-28T08:55:35.901Z,10.87
2023-01-28T08:58:05.071Z,10.93
2023-01-28T09:00:32.830Z,9.40
2023-01-28T09:03:00.308Z,10.83
2023-01-28T09:05:27.595Z,10.07
2023-01-28T09:07:54.709Z,10.20
2023-01-28T09:10:22.134Z,10.53
2023-01-28T09:12:49.547Z,11.20
2023-01-28T09:15:17.993Z,11.23
2023-01-28T09:17:46.046Z,11.20
2023-01-28T09:20:13.914Z,10.57
2023-01-28T09:22:41.477Z,11.03
2023-01-28T09:25:09.199Z,11.03
2023-01-28T09:27:36.235Z,10.97
2023-01-28T09:30:03.750Z,9.90
2023-01-28T09:32:31.411Z,11.27
2023-01-28T09:34:59.058Z,9.83
2023-01-28T09:37:26.058Z,11.40
2023-01-28T09:39:53.213Z,10.80
2023-01-28T09:42:41.162Z,10.73
2023-01-28T09:45:41.812Z,10.67
2023-01-28T09:48:21.946Z,11.17
2023-01-28T09:50:55.027Z,10.53
2023-01-28T09:53:24.351Z,11.13
2023-01-28T09:55:57.222Z,11.10
2023-01-28T09:58:24.330Z,11.57
2023-01-28T10:01:10.340Z,11.73
2023-01-28T10:03:46.265Z,11.57
2023-01-28T10:06:53.886Z,10.67
2023-01-28T10:09:34.748Z,10.07
2023-01-28T10:12:39.794Z,10.93
2023-01-28T10:15:07.199Z,9.67
2023-01-28T10:17:44.350Z,11.17
2023-01-28T10:20:21.161Z,10.73
2023-01-28T10:23:07.402Z,9.93
2023-01-28T10:25:35.925Z,9.90
2023-01-28T10:28:03.239Z,10.50
2023-01-28T10:30:38.740Z,10.33
2023-01-28T10:33:17.949Z,9.73
2023-01-28T10:35:45.403Z,10.27
2023-01-28T10:38:20.336Z,10.57
2023-01-28T10:40:50.631Z,9.83
2023-01-28T10:43:24.665Z,9.47
2023-01-28T10:46:15.877Z,10.73
2023-01-28T10:48:58.592Z,10.20
2023-01-28T10:51:37.208Z,10.73
2023-01-28T10:54:25.163Z,9.27
2023-01-28T10:56:59.249Z,10.00
2023-01-28T10:59:28.223Z,10.47
2023-01-28T11:02:04.581Z,10.47
2023-01-28T11:04:33.065Z,10.50
2023-01-28T11:07:04.708Z,11.10
2023-01-28T11:09:33.404Z,10.63
2023-01-28T11:12:20.416Z,11.00
2023-01-28T11:14:52.538Z,11.10
2023-01-28T11:17:24.731Z,10.63
2023-01-28T11:20:01.793Z,11.30
2023-01-28T11:22:38.906Z,11.27
2023-01-28T11:25:36.221Z,10.83
2023-01-28T11:28:17.495Z,10.80
2023-01-28T11:30:50.770Z,11.73
2023-01-28T11:33:39.546Z,11.90
2023-01-28T11:36:26.076Z,11.67
2023-01-28T11:38:55.376Z,12.23
2023-01-28T11:41:35.169Z,12.53
2023-01-28T11:44:20.789Z,11.73
2023-01-28T11:47:14.304Z,12.47
2023-01-28T11:50:05.462Z,11.80
2023-01-28T11:53:04.807Z,11.80
2023-01-28T11:55:51.792Z,11.63
2023-01-28T11:58:36.449Z,11.80
2023-01-28T12:01:56.950Z,12.67
2023-01-28T12:05:01.354Z,11.93
2023-01-28T12:07:40.418Z,11.93
2023-01-28T12:10:13.868Z,12.07
2023-01-28T12:12:44.302Z,12.30
2023-01-28T12:15:45.152Z,13.70
2023-01-28T12:18:33.163Z,12.33
2023-01-28T12:21:10.927Z,12.30
2023-01-28T12:23:47.038Z,12.87
2023-01-28T12:26:27.019Z,12.67
2023-01-28T12:29:28.914Z,12.90
2023-01-28T12:32:17.759Z,13.57
2023-01-28T12:34:53.738Z,13.47
2023-01-28T12:38:10.617Z,13.23
2023-01-28T12:40:56.890Z,13.60
2023-01-28T12:43:37.655Z,13.73
2023-01-28T12:46:18.889Z,14.33
2023-01-28T12:48:54.012Z,13.73
2023-01-28T12:51:41.288Z,14.10
2023-01-28T12:54:40.892Z,13.70
2023-01-28T12:57:13.882Z,13.37
2023-01-28T12:59:50.530Z,14.30
2023-01-28T13:02:26.618Z,14.47
2023-01-28T13:05:02.384Z,13.63
2023-01-28T13:07:37.404Z,13.50
2023-01-28T13:10:16.459Z,14.33
2023-01-28T13:12:44.716Z,13.30
2023-01-28T13:15:15.539Z,13.80
2023-01-28T13:17:58.413Z,13.23
2023-01-28T13:20:48.306Z,12.90
2023-01-28T13:23:41.890Z,13.50
2023-01-28T13:26:24.433Z,13.23
2023-01-28T13:28:53.528Z,12.87
2023-01-28T13:31:23.906Z,13.63
2023-01-28T13:33:54.150Z,13.10
2023-01-28T13:36:44.188Z,13.57
2023-01-28T13:39:14.416Z,12.97
2023-01-28T13:41:46.953Z,12.83
2023-01-28T13:44:29.850Z,13.03
2023-01-28T13:47:00.586Z,13.20
2023-01-28T13:49:54.384Z,12.87
2023-01-28T13:52:32.567Z,12.00
2023-01-28T13:55:06.869Z,13.87
2023-01-28T13:57:43.061Z,13.20
2023-01-28T14:00:37.800Z,12.97
2023-01-28T14:03:29.177Z,12.80
2023-01-28T14:06:30.590Z,12.90
2023-01-28T14:09:05.919Z,12.70
2023-01-28T14:11:54.391Z,13.13
2023-01-28T14:14:26.959Z,12.77
2023-01-28T14:17:14.244Z,12.50
2023-01-28T14:19:42.121Z,11.70
2023-01-28T14:22:10.747Z,12.17
2023-01-28T14:24:39.689Z,12.33
2023-01-28T14:27:11.623Z,11.97
2023-01-28T14:30:18.560Z,12.23
2023-01-28T14:32:51.587Z,11.57
2023-01-28T14:35:29.482Z,12.07
2023-01-28T14:37:58.120Z,12.50
2023-01-28T14:40:25.766Z,12.50
2023-01-28T14:42:55.400Z,11.63
2023-01-28T14:45:31.204Z,11.97
2023-01-28T14:48:09.819Z,12.50
2023-01-28T14:51:05.593Z,12.83
2023-01-28T14:54:06.054Z,12.87
2023-01-28T14:56:56.913Z,12.17
2023-01-28T14:59:29.774Z,12.10
2023-01-28T15:01:59.543Z,14.00
2023-01-28T15:04:30.564Z,12.30
2023-01-28T15:07:15.035Z,12.73
2023-01-28T15:09:42.213Z,12.23
2023-01-28T15:12:10.193Z,13.30
2023-01-28T15:14:37.373Z,13.00
2023-01-28T15:17:04.929Z,13.60
2023-01-28T15:19:35.453Z,15.97
2023-01-28T15:22:06.623Z,17.03
2023-01-28T15:24:37.411Z,16.10
2023-01-28T15:27:04.563Z,15.20
2023-01-28T15:29:35.343Z,15.33
2023-01-28T15:32:04.125Z,17.47
2023-01-28T15:34:32.191Z,19.10
2023-01-28T15:37:02.451Z,19.30
2023-01-28T15:39:30.251Z,19.07
2023-01-28T15:41:58.891Z,21.10
2023-01-28T15:44:29.383Z,20.13
2023-01-28T15:47:01.180Z,21.50
2023-01-28T15:49:34.008Z,22.10
2023-01-28T15:52:01.728Z,21.87
2023-01-28T15:54:30.531Z,20.97
2023-01-28T15:57:08.178Z,22.30
2023-01-28T15:59:35.235Z,21.67
2023-01-28T16:02:18.674Z,22.23
2023-01-28T16:04:57.808Z,24.73
2023-01-28T16:07:27.402Z,22.90
2023-01-28T16:09:56.850Z,23.03
2023-01-28T16:12:26.845Z,24.80
2023-01-28T16:15:02.726Z,22.90
2023-01-28T16:17:37.644Z,22.83
2023-01-28T16:20:08.095Z,23.67
2023-01-28T16:22:35.096Z,22.93
2023-01-28T16:25:03.831Z,23.77
2023-01-28T16:27:31.464Z,24.23
2023-01-28T16:29:58.670Z,23.70
2023-01-28T16:32:28.824Z,22.63
2023-01-28T16:34:56.164Z,23.40
2023-01-28T16:37:23.359Z,23.13
2023-01-28T16:39:50.468Z,24.00
2023-01-28T16:42:17.789Z,25.13
2023-01-28T16:44:45.284Z,23.57
2023-01-28T16:47:12.421Z,24.30
2023-01-28T16:49:40.056Z,22.87
2023-01-28T16:52:07.381Z,23.93
2023-01-28T16:54:35.082Z,23.63
2023-01-28T16:57:02.329Z,24.03
2023-01-28T16:59:29.429Z,24.30
2023-01-28T17:01:56.668Z,24.47
2023-01-28T17:04:23.774Z,23.47
2023-01-28T17:06:52.644Z,23.93
2023-01-28T17:09:20.433Z,23.63
2023-01-28T17:11:47.872Z,24.40
2023-01-28T17:14:14.808Z,23.67
2023-01-28T17:16:41.965Z,24.43
2023-01-28T17:19:08.987Z,24.47
2023-01-28T17:21:36.132Z,24.77
2023-01-28T17:24:03.629Z,24.23
2023-01-28T17:26:30.813Z,24.83
2023-01-28T17:28:57.859Z,25.20
2023-01-28T17:31:26.689Z,25.57
2023-01-28T17:33:55.625Z,25.70
2023-01-28T17:36:24.008Z,25.57
2023-01-28T17:38:51.639Z,26.00
2023-01-28T17:41:18.834Z,26.83
2023-01-28T17:43:53.384Z,26.37
2023-01-28T17:46:21.999Z,26.23
2023-01-28T17:48:49.027Z,26.63
2023-01-28T17:51:19.343Z,27.13
2023-01-28T17:53:47.938Z,27.57
2023-01-28T17:56:20.268Z,26.63
2023-01-28T17:58:55.185Z,27.83
2023-01-28T18:01:23.924Z,26.93
2023-01-28T18:03:51.169Z,27.33
2023-01-28T18:06:18.641Z,28.83
2023-01-28T18:08:46.056Z,28.60
2023-01-28T18:11:15.589Z,28.13
2023-01-28T18:13:43.152Z,27.77
2023-01-28T18:16:15.354Z,28.17
2023-01-28T18:18:43.153Z,28.10
2023-01-28T18:21:51.227Z,29.03
2023-01-28T18:24:20.371Z,27.20
2023-01-28T18:26:47.912Z,29.23
2023-01-28T18:29:19.075Z,28.27
2023-01-28T18:31:48.258Z,29.87
2023-01-28T18:34:16.199Z,30.93
2023-01-28T18:36:43.521Z,31.63
2023-01-28T18:39:12.887Z,29.93
2023-01-28T18:41:40.197Z,30.80
2023-01-28T18:44:09.248Z,30.40
2023-01-28T18:46:36.340Z,30.93
2023-01-28T18:49:03.807Z,30.20
2023-01-28T18:51:31.885Z,29.60
2023-01-28T18:54:00.702Z,31.03
2023-01-28T18:56:29.623Z,30.37
2023-01-28T18:59:02.002Z,31.57
2023-01-28T19:01:29.696Z,30.90
2023-01-28T19:03:58.154Z,31.03
2023-01-28T19:06:27.381Z,30.80
2023-01-28T19:08:56.293Z,31.00
2023-01-28T19:11:25.506Z,32.03
2023-01-28T19:13:53.103Z,32.07
2023-01-28T19:16:21.847Z,31.43
2023-01-28T19:18:57.594Z,32.33
2023-01-28T19:21:25.839Z,33.07
2023-01-28T19:24:00.701Z,31.70
2023-01-28T19:26:30.031Z,33.63
2023-01-28T19:28:57.535Z,34.37
2023-01-28T19:31:25.872Z,33.67
2023-01-28T19:33:58.333Z,36.07
2023-01-28T19:36:28.014Z,36.23
2023-01-28T19:39:00.116Z,40.23
2023-01-28T19:41:28.845Z,40.97
2023-01-28T19:43:56.814Z,41.73
2023-01-28T19:46:24.206Z,42.47
2023-01-28T19:48:51.393Z,42.97
2023-01-28T19:51:19.857Z,42.67
2023-01-28T19:53:50.596Z,42.83
2023-01-28T19:56:18.876Z,43.43
2023-01-28T19:58:46.952Z,44.00
2023-01-28T20:01:16.727Z,43.57
2023-01-28T20:03:45.739Z,43.03
2023-01-28T20:06:15.694Z,44.50
2023-01-28T20:08:43.802Z,41.77
2023-01-28T20:11:13.786Z,43.57
2023-01-28T20:13:43.034Z,41.97
2023-01-28T20:16:21.520Z,42.13
2023-01-28T20:18:53.626Z,45.33
2023-01-28T20:21:21.796Z,43.83
2023-01-28T20:23:50.442Z,43.17
2023-01-28T20:26:18.926Z,42.70
2023-01-28T20:28:46.059Z,44.50
2023-01-28T20:31:13.711Z,43.93
2023-01-28T20:33:40.881Z,44.80
2023-01-28T20:36:10.990Z,46.33
2023-01-28T20:38:48.501Z,44.13
2023-01-28T20:41:21.698Z,42.50
2023-01-28T20:43:50.610Z,43.10
2023-01-28T20:46:19.401Z,42.23
2023-01-28T20:48:47.517Z,43.50
2023-01-28T20:51:17.434Z,43.53
2023-01-28T20:53:45.381Z,43.53
2023-01-28T20:56:14.464Z,43.03
2023-01-28T20:58:42.155Z,41.83
2023-01-28T21:01:19.361Z,42.23
2023-01-28T21:03:47.604Z,39.93
2023-01-28T21:06:15.161Z,36.90
2023-01-28T21:08:43.557Z,34.23
2023-01-28T21:11:12.990Z,36.27
2023-01-28T21:13:40.555Z,38.83
2023-01-28T21:16:08.359Z,39.20
2023-01-28T21:18:35.684Z,37.97
2023-01-28T21:21:11.123Z,36.67
2023-01-28T21:23:38.159Z,39.07
2023-01-28T21:26:05.991Z,37.03
2023-01-28T21:28:33.311Z,34.17
2023-01-28T21:31:23.494Z,33.13
2023-01-28T21:33:52.259Z,32.63
2023-01-28T21:36:19.619Z,32.10
2023-01-28T21:38:52.017Z,31.40
2023-01-28T21:41:19.472Z,32.27
2023-01-28T21:43:53.809Z,32.03
2023-01-28T21:46:22.667Z,29.93
2023-01-28T21:48:49.786Z,31.10
2023-01-28T21:51:35.702Z,30.30
2023-01-28T21:54:04.603Z,29.80
2023-01-28T21:56:34.844Z,30.90
2023-01-28T21:59:20.504Z,29.77
2023-01-28T22:01:47.911Z,29.67
2023-01-28T22:04:15.364Z,29.40
2023-01-28T22:06:43.094Z,30.37
2023-01-28T22:09:14.196Z,31.40
2023-01-28T22:11:43.326Z,30.50
2023-01-28T22:14:10.931Z,29.80
2023-01-28T22:16:38.603Z,29.90
2023-01-28T22:19:05.642Z,28.40
2023-01-28T22:21:33.019Z,30.37
2023-01-28T22:24:00.518Z,29.83
2023-01-28T22:26:27.662Z,27.97
2023-01-28T22:28:54.720Z,27.00
2023-01-28T22:31:21.991Z,25.73
2023-01-28T22:33:49.154Z,25.90
2023-01-28T22:36:16.626Z,25.63
2023-01-28T22:38:45.603Z,27.30
2023-01-28T22:41:19.303Z,26.57
2023-01-28T22:43:47.274Z,27.17
2023-01-28T22:46:15.632Z,28.30
2023-01-28T22:48:42.842Z,28.70
2023-01-28T22:51:27.340Z,28.73
2023-01-28T22:53:54.516Z,27.53
2023-01-28T22:56:24.232Z,26.60
2023-01-28T22:58:59.125Z,23.80
2023-01-28T23:01:27.187Z,23.10
2023-01-28T23:03:56.291Z,21.67
2023-01-28T23:06:25.236Z,22.37
2023-01-28T23:08:52.820Z,21.80
2023-01-28T23:11:27.313Z,20.97
2023-01-28T23:14:19.488Z,20.90
2023-01-28T23:17:05.702Z,20.73
2023-01-28T23:19:52.391Z,21.10
2023-01-28T23:22:48.217Z,21.93
2023-01-28T23:25:15.964Z,21.13
2023-01-28T23:27:43.816Z,21.63
2023-01-28T23:30:12.384Z,21.30
2023-01-28T23:32:42.410Z,20.87
2023-01-28T23:35:10.699Z,20.50
2023-01-28T23:37:37.991Z,19.80
2023-01-28T23:40:06.830Z,19.47
2023-01-28T23:42:33.972Z,17.40
2023-01-28T23:45:01.142Z,16.47
2023-01-28T23:47:28.278Z,15.83
2023-01-28T23:49:55.438Z,15.57
2023-01-28T23:52:23.523Z,14.20
2023-01-28T23:54:50.873Z,15.13
2023-01-28T23:57:17.849Z,13.77
2023-01-28T23:59:44.956Z,13.60
